sensor_id;sensor_type;location;lat;lon;timestamp;temperature;humidity
23591;DHT22;11973;52.098;7.582;2022-12-29T08:59:23;9.30;99.90
23591;DHT22;11973;52.098;7.582;2022-12-29T09:01:49;9.30;99.90
23591;DHT22;11973;52.098;7.582;2022-12-29T09:04:15;9.40;99.90
23591;DHT22;11973;52.098;7.582;2022-12-29T09:06:41;9.60;99.90
23591;DHT22;11973;52.098;7.582;2022-12-29T09:09:07;9.70;99.90
23591;DHT22;11973;52.098;7.582;2022-12-29T09:11:33;9.90;99.90
23591;DHT22;11973;52.098;7.582;2022-12-29T09:13:59;10.00;99.90
23591;DHT22;11973;52.098;7.582;2022-12-29T09:16:25;10.10;99.90
23591;DHT22;11973;52.098;7.582;2022-12-29T09:18:52;10.20;99.90
23591;DHT22;11973;52.098;7.582;2022-12-29T09:21:18;10.20;99.90
23591;DHT22;11973;52.098;7.582;2022-12-29T09:23:44;10.30;99.90
23591;DHT22;11973;52.098;7.582;2022-12-29T09:26:09;10.30;99.90
23591;DHT22;11973;52.098;7.582;2022-12-29T09:28:35;10.40;99.90
23591;DHT22;11973;52.098;7.582;2022-12-29T09:31:02;10.60;99.90
23591;DHT22;11973;52.098;7.582;2022-12-29T09:33:28;10.50;99.90
23591;DHT22;11973;52.098;7.582;2022-12-29T09:35:56;10.50;99.90
23591;DHT22;11973;52.098;7.582;2022-12-29T09:38:23;10.50;99.90
23591;DHT22;11973;52.098;7.582;2022-12-29T09:40:55;10.60;99.90
23591;DHT22;11973;52.098;7.582;2022-12-29T09:46:29;10.60;99.90
23591;DHT22;11973;52.098;7.582;2022-12-29T09:49:17;10.70;99.90
23591;DHT22;11973;52.098;7.582;2022-12-29T09:51:52;10.70;99.90
23591;DHT22;11973;52.098;7.582;2022-12-29T09:54:41;10.70;99.90
23591;DHT22;11973;52.098;7.582;2022-12-29T09:57:24;10.70;99.90
23591;DHT22;11973;52.098;7.582;2022-12-29T09:59:55;10.80;99.90
23591;DHT22;11973;52.098;7.582;2022-12-29T10:02:39;10.80;99.90
23591;DHT22;11973;52.098;7.582;2022-12-29T10:05:32;10.80;99.90
23591;DHT22;11973;52.098;7.582;2022-12-29T10:08:12;10.80;99.90
23591;DHT22;11973;52.098;7.582;2022-12-29T10:10:52;10.80;99.90
23591;DHT22;11973;52.098;7.582;2022-12-29T10:16:12;10.80;99.90
23591;DHT22;11973;52.098;7.582;2022-12-29T10:21:34;10.90;99.90
23591;DHT22;11973;52.098;7.582;2022-12-29T10:24:07;10.90;99.90
23591;DHT22;11973;52.098;7.582;2022-12-29T10:26:42;10.90;99.90
23591;DHT22;11973;52.098;7.582;2022-12-29T10:29:23;11.00;99.90
23591;DHT22;11973;52.098;7.582;2022-12-29T10:32:09;11.10;99.90
23591;DHT22;11973;52.098;7.582;2022-12-29T10:34:45;11.10;99.90
23591;DHT22;11973;52.098;7.582;2022-12-29T10:39:58;11.20;99.90
23591;DHT22;11973;52.098;7.582;2022-12-29T10:42:29;11.30;99.90
23591;DHT22;11973;52.098;7.582;2022-12-29T10:44:59;11.40;99.90
23591;DHT22;11973;52.098;7.582;2022-12-29T10:47:28;11.40;99.90
23591;DHT22;11973;52.098;7.582;2022-12-29T10:49:54;11.60;99.90
23591;DHT22;11973;52.098;7.582;2022-12-29T10:52:22;11.50;99.90
23591;DHT22;11973;52.098;7.582;2022-12-29T10:55:17;11.70;99.90
23591;DHT22;11973;52.098;7.582;2022-12-29T10:57:45;11.60;99.90
23591;DHT22;11973;52.098;7.582;2022-12-29T11:00:19;11.60;99.90
23591;DHT22;11973;52.098;7.582;2022-12-29T11:06:18;11.70;99.90
23591;DHT22;11973;52.098;7.582;2022-12-29T11:08:57;11.70;99.90
23591;DHT22;11973;52.098;7.582;2022-12-29T11:11:33;11.70;99.90
23591;DHT22;11973;52.098;7.582;2022-12-29T11:14:13;11.70;99.90
23591;DHT22;11973;52.098;7.582;2022-12-29T11:16:40;11.80;99.90
23591;DHT22;11973;52.098;7.582;2022-12-29T11:19:23;11.80;99.90
23591;DHT22;11973;52.098;7.582;2022-12-29T11:21:49;11.80;99.90
23591;DHT22;11973;52.098;7.582;2022-12-29T11:24:24;12.00;99.90
23591;DHT22;11973;52.098;7.582;2022-12-29T11:26:53;11.90;99.90
23591;DHT22;11973;52.098;7.582;2022-12-29T11:29:40;11.90;99.90
23591;DHT22;11973;52.098;7.582;2022-12-29T11:32:19;11.90;99.90
23591;DHT22;11973;52.098;7.582;2022-12-29T11:34:45;11.70;99.90
23591;DHT22;11973;52.098;7.582;2022-12-29T11:37:30;11.90;99.90
23591;DHT22;11973;52.098;7.582;2022-12-29T11:39:59;11.90;99.90
23591;DHT22;11973;52.098;7.582;2022-12-29T11:42:52;11.90;99.90
23591;DHT22;11973;52.098;7.582;2022-12-29T11:45:26;11.80;99.90
23591;DHT22;11973;52.098;7.582;2022-12-29T11:48:17;11.70;99.90
23591;DHT22;11973;52.098;7.582;2022-12-29T11:50:53;11.60;99.90
23591;DHT22;11973;52.098;7.582;2022-12-29T11:53:25;11.50;99.90
23591;DHT22;11973;52.098;7.582;2022-12-29T11:56:02;11.20;99.90
23591;DHT22;11973;52.098;7.582;2022-12-29T11:58:31;11.30;99.90
23591;DHT22;11973;52.098;7.582;2022-12-29T12:03:32;11.20;99.90
23591;DHT22;11973;52.098;7.582;2022-12-29T12:06:03;11.40;99.90
23591;DHT22;11973;52.098;7.582;2022-12-29T12:08:56;11.20;99.90
23591;DHT22;11973;52.098;7.582;2022-12-29T12:11:28;11.30;99.90
23591;DHT22;11973;52.098;7.582;2022-12-29T12:14:34;11.30;99.90
23591;DHT22;11973;52.098;7.582;2022-12-29T12:20:31;11.30;99.90
23591;DHT22;11973;52.098;7.582;2022-12-29T12:26:12;11.30;99.90
23591;DHT22;11973;52.098;7.582;2022-12-29T12:31:19;11.20;99.90
23591;DHT22;11973;52.098;7.582;2022-12-29T12:33:51;11.20;99.90
23591;DHT22;11973;52.098;7.582;2022-12-29T12:45:04;11.20;99.90
23591;DHT22;11973;52.098;7.582;2022-12-29T12:55:41;11.20;99.90
23591;DHT22;11973;52.098;7.582;2022-12-29T13:01:13;11.20;99.90
23591;DHT22;11973;52.098;7.582;2022-12-29T13:06:31;11.20;99.90
23591;DHT22;11973;52.098;7.582;2022-12-29T13:15:03;11.30;99.90
23591;DHT22;11973;52.098;7.582;2022-12-29T13:17:54;11.40;99.90
23591;DHT22;11973;52.098;7.582;2022-12-29T13:20:31;11.50;99.90
23591;DHT22;11973;52.098;7.582;2022-12-29T13:23:37;11.40;99.90
23591;DHT22;11973;52.098;7.582;2022-12-29T13:26:17;11.50;99.90
23591;DHT22;11973;52.098;7.582;2022-12-29T13:31:38;11.50;99.90
23591;DHT22;11973;52.098;7.582;2022-12-29T13:34:21;11.50;99.90
23591;DHT22;11973;52.098;7.582;2022-12-29T13:36:56;11.40;99.90
23591;DHT22;11973;52.098;7.582;2022-12-29T13:39:33;11.40;99.90
23591;DHT22;11973;52.098;7.582;2022-12-29T13:42:01;11.40;99.90
23591;DHT22;11973;52.098;7.582;2022-12-29T13:44:39;11.60;99.90
23591;DHT22;11973;52.098;7.582;2022-12-29T13:50:01;11.50;99.90
23591;DHT22;11973;52.098;7.582;2022-12-29T13:52:39;11.60;99.90
23591;DHT22;11973;52.098;7.582;2022-12-29T14:00:25;11.60;99.90
23591;DHT22;11973;52.098;7.582;2022-12-29T14:06:19;11.50;99.90
23591;DHT22;11973;52.098;7.582;2022-12-29T14:08:46;11.50;99.90
23591;DHT22;11973;52.098;7.582;2022-12-29T14:11:15;11.40;99.90
23591;DHT22;11973;52.098;7.582;2022-12-29T14:13:44;11.40;99.90
23591;DHT22;11973;52.098;7.582;2022-12-29T14:18:55;11.30;99.90
23591;DHT22;11973;52.098;7.582;2022-12-29T14:21:25;11.20;99.90
23591;DHT22;11973;52.098;7.582;2022-12-29T14:24:26;11.20;99.90
23591;DHT22;11973;52.098;7.582;2022-12-29T14:26:46;11.10;99.90
23591;DHT22;11973;52.098;7.582;2022-12-29T14:34:53;11.10;99.90
23591;DHT22;11973;52.098;7.582;2022-12-29T14:37:34;11.00;99.90
23591;DHT22;11973;52.098;7.582;2022-12-29T14:42:48;11.00;99.90
23591;DHT22;11973;52.098;7.582;2022-12-29T14:47:45;10.90;99.90
23591;DHT22;11973;52.098;7.582;2022-12-29T14:52:53;10.90;99.90
23591;DHT22;11973;52.098;7.582;2022-12-29T15:00:50;10.80;99.90
23591;DHT22;11973;52.098;7.582;2022-12-29T15:03:32;10.90;99.90
23591;DHT22;11973;52.098;7.582;2022-12-29T15:06:09;10.70;99.90
23591;DHT22;11973;52.098;7.582;2022-12-29T15:08:39;10.70;99.90
23591;DHT22;11973;52.098;7.582;2022-12-29T15:11:24;10.70;99.90
23591;DHT22;11973;52.098;7.582;2022-12-29T15:13:52;10.70;99.90
23591;DHT22;11973;52.098;7.582;2022-12-29T15:16:24;10.90;99.90
23591;DHT22;11973;52.098;7.582;2022-12-29T15:18:51;10.60;99.90
23591;DHT22;11973;52.098;7.582;2022-12-29T15:21:20;10.60;99.90
23591;DHT22;11973;52.098;7.582;2022-12-29T15:23:48;10.60;99.90
23591;DHT22;11973;52.098;7.582;2022-12-29T15:26:14;10.60;99.90
23591;DHT22;11973;52.098;7.582;2022-12-29T15:28:46;10.60;99.90
23591;DHT22;11973;52.098;7.582;2022-12-29T15:31:21;10.60;99.90
23591;DHT22;11973;52.098;7.582;2022-12-29T15:34:10;10.50;99.90
23591;DHT22;11973;52.098;7.582;2022-12-29T15:36:38;10.50;99.90
23591;DHT22;11973;52.098;7.582;2022-12-29T15:39:23;10.40;99.90
23591;DHT22;11973;52.098;7.582;2022-12-29T15:41:59;10.30;99.90
23591;DHT22;11973;52.098;7.582;2022-12-29T15:44:39;10.20;99.90
23591;DHT22;11973;52.098;7.582;2022-12-29T15:47:11;10.00;99.90
23591;DHT22;11973;52.098;7.582;2022-12-29T15:49:39;9.90;99.90
23591;DHT22;11973;52.098;7.582;2022-12-29T15:52:08;10.00;99.90
23591;DHT22;11973;52.098;7.582;2022-12-29T15:54:34;9.70;99.90
23591;DHT22;11973;52.098;7.582;2022-12-29T15:57:00;9.60;99.90
23591;DHT22;11973;52.098;7.582;2022-12-29T15:59:27;9.50;99.90
23591;DHT22;11973;52.098;7.582;2022-12-29T16:01:58;9.40;99.90
23591;DHT22;11973;52.098;7.582;2022-12-29T16:04:26;9.40;99.90
23591;DHT22;11973;52.098;7.582;2022-12-29T16:09:42;9.20;99.90
23591;DHT22;11973;52.098;7.582;2022-12-29T16:12:21;9.20;99.90
23591;DHT22;11973;52.098;7.582;2022-12-29T16:14:50;9.10;99.90
23591;DHT22;11973;52.098;7.582;2022-12-29T16:17:20;9.10;99.90
23591;DHT22;11973;52.098;7.582;2022-12-29T16:19:56;9.00;99.90
23591;DHT22;11973;52.098;7.582;2022-12-29T16:22:55;9.00;99.90
23591;DHT22;11973;52.098;7.582;2022-12-29T16:25:30;9.10;99.90
23591;DHT22;11973;52.098;7.582;2022-12-29T16:27:58;9.00;99.90
23591;DHT22;11973;52.098;7.582;2022-12-29T16:30:27;8.90;99.90
23591;DHT22;11973;52.098;7.582;2022-12-29T16:32:56;8.90;99.90
23591;DHT22;11973;52.098;7.582;2022-12-29T16:35:28;8.90;99.90
23591;DHT22;11973;52.098;7.582;2022-12-29T16:38:18;8.90;99.90
23591;DHT22;11973;52.098;7.582;2022-12-29T16:40:52;9.00;99.90
23591;DHT22;11973;52.098;7.582;2022-12-29T16:43:26;9.00;99.90
23591;DHT22;11973;52.098;7.582;2022-12-29T16:48:36;9.00;99.90
23591;DHT22;11973;52.098;7.582;2022-12-29T16:51:06;9.00;99.90
23591;DHT22;11973;52.098;7.582;2022-12-29T16:53:39;9.00;99.90
23591;DHT22;11973;52.098;7.582;2022-12-29T16:56:18;9.00;99.90
23591;DHT22;11973;52.098;7.582;2022-12-29T16:58:50;9.00;99.90
23591;DHT22;11973;52.098;7.582;2022-12-29T17:01:19;9.00;99.90
23591;DHT22;11973;52.098;7.582;2022-12-29T17:04:00;9.00;99.90
23591;DHT22;11973;52.098;7.582;2022-12-29T17:06:26;9.00;99.90
23591;DHT22;11973;52.098;7.582;2022-12-29T17:08:52;9.00;99.90
23591;DHT22;11973;52.098;7.582;2022-12-29T17:11:26;9.00;99.90
23591;DHT22;11973;52.098;7.582;2022-12-29T17:16:49;8.90;99.90
23591;DHT22;11973;52.098;7.582;2022-12-29T17:19:20;9.00;99.90
23591;DHT22;11973;52.098;7.582;2022-12-29T17:21:47;9.10;99.90
23591;DHT22;11973;52.098;7.582;2022-12-29T17:24:17;8.90;99.90
23591;DHT22;11973;52.098;7.582;2022-12-29T17:26:46;9.00;99.90
23591;DHT22;11973;52.098;7.582;2022-12-29T17:29:35;8.90;99.90
23591;DHT22;11973;52.098;7.582;2022-12-29T17:32:02;8.90;99.90
23591;DHT22;11973;52.098;7.582;2022-12-29T17:34:29;8.90;99.90
23591;DHT22;11973;52.098;7.582;2022-12-29T17:36:55;9.00;99.90
23591;DHT22;11973;52.098;7.582;2022-12-29T17:39:20;8.80;99.90
23591;DHT22;11973;52.098;7.582;2022-12-29T17:41:46;8.80;99.90
23591;DHT22;11973;52.098;7.582;2022-12-29T17:44:17;8.80;99.90
23591;DHT22;11973;52.098;7.582;2022-12-29T17:46:44;8.80;99.90
23591;DHT22;11973;52.098;7.582;2022-12-29T17:49:16;8.90;99.90
23591;DHT22;11973;52.098;7.582;2022-12-29T17:51:43;8.90;99.90
23591;DHT22;11973;52.098;7.582;2022-12-29T17:54:27;8.90;99.90
23591;DHT22;11973;52.098;7.582;2022-12-29T17:56:53;8.90;99.90
23591;DHT22;11973;52.098;7.582;2022-12-29T17:59:19;8.90;99.90
23591;DHT22;11973;52.098;7.582;2022-12-29T18:01:46;8.90;99.90
23591;DHT22;11973;52.098;7.582;2022-12-29T18:04:13;8.90;99.90
23591;DHT22;11973;52.098;7.582;2022-12-29T18:06:40;8.90;99.90
23591;DHT22;11973;52.098;7.582;2022-12-29T18:09:07;8.80;99.90
23591;DHT22;11973;52.098;7.582;2022-12-29T18:11:37;8.80;99.90
23591;DHT22;11973;52.098;7.582;2022-12-29T18:14:07;8.80;99.90
23591;DHT22;11973;52.098;7.582;2022-12-29T18:16:35;8.80;99.90
23591;DHT22;11973;52.098;7.582;2022-12-29T18:19:01;8.80;99.90
23591;DHT22;11973;52.098;7.582;2022-12-29T18:21:27;8.80;99.90
23591;DHT22;11973;52.098;7.582;2022-12-29T18:23:52;8.80;99.90
23591;DHT22;11973;52.098;7.582;2022-12-29T18:26:19;8.80;99.90
23591;DHT22;11973;52.098;7.582;2022-12-29T18:28:48;9.00;99.90
23591;DHT22;11973;52.098;7.582;2022-12-29T18:31:19;8.80;99.90
23591;DHT22;11973;52.098;7.582;2022-12-29T18:33:46;8.80;99.90
23591;DHT22;11973;52.098;7.582;2022-12-29T18:36:12;8.90;99.90
23591;DHT22;11973;52.098;7.582;2022-12-29T18:38:38;8.70;99.90
23591;DHT22;11973;52.098;7.582;2022-12-29T18:41:04;9.00;99.90
23591;DHT22;11973;52.098;7.582;2022-12-29T18:43:31;8.70;99.90
23591;DHT22;11973;52.098;7.582;2022-12-29T18:45:56;8.70;99.90
23591;DHT22;11973;52.098;7.582;2022-12-29T18:48:22;8.80;99.90
23591;DHT22;11973;52.098;7.582;2022-12-29T18:50:48;8.60;99.90
23591;DHT22;11973;52.098;7.582;2022-12-29T18:53:19;8.60;99.90
23591;DHT22;11973;52.098;7.582;2022-12-29T18:55:45;8.60;99.90
23591;DHT22;11973;52.098;7.582;2022-12-29T18:58:11;8.50;99.90
23591;DHT22;11973;52.098;7.582;2022-12-29T19:00:37;8.50;99.90
23591;DHT22;11973;52.098;7.582;2022-12-29T19:03:03;8.60;99.90
23591;DHT22;11973;52.098;7.582;2022-12-29T19:05:34;8.30;99.90
23591;DHT22;11973;52.098;7.582;2022-12-29T19:08:01;8.30;99.90
23591;DHT22;11973;52.098;7.582;2022-12-29T19:10:27;8.30;99.90
23591;DHT22;11973;52.098;7.582;2022-12-29T19:12:53;8.20;99.90
23591;DHT22;11973;52.098;7.582;2022-12-29T19:15:28;8.20;99.90
23591;DHT22;11973;52.098;7.582;2022-12-29T19:17:56;8.20;99.90
23591;DHT22;11973;52.098;7.582;2022-12-29T19:20:30;8.30;99.90
23591;DHT22;11973;52.098;7.582;2022-12-29T19:22:57;8.00;99.90
23591;DHT22;11973;52.098;7.582;2022-12-29T19:25:23;8.00;99.90
23591;DHT22;11973;52.098;7.582;2022-12-29T19:27:50;8.00;99.90
23591;DHT22;11973;52.098;7.582;2022-12-29T19:30:17;8.10;99.90
23591;DHT22;11973;52.098;7.582;2022-12-29T19:32:50;7.90;99.90
23591;DHT22;11973;52.098;7.582;2022-12-29T19:35:17;7.90;99.90
23591;DHT22;11973;52.098;7.582;2022-12-29T19:37:43;7.90;99.90
23591;DHT22;11973;52.098;7.582;2022-12-29T19:40:12;7.80;99.90
23591;DHT22;11973;52.098;7.582;2022-12-29T19:42:39;7.80;99.90
23591;DHT22;11973;52.098;7.582;2022-12-29T19:45:05;7.80;99.90
23591;DHT22;11973;52.098;7.582;2022-12-29T19:47:32;7.70;99.90
23591;DHT22;11973;52.098;7.582;2022-12-29T19:49:58;7.90;99.90
23591;DHT22;11973;52.098;7.582;2022-12-29T19:52:26;7.70;99.90
23591;DHT22;11973;52.098;7.582;2022-12-29T19:54:52;7.80;99.90
23591;DHT22;11973;52.098;7.582;2022-12-29T19:57:18;7.80;99.90
23591;DHT22;11973;52.098;7.582;2022-12-29T19:59:44;7.80;99.90
23591;DHT22;11973;52.098;7.582;2022-12-29T20:02:19;7.90;99.90
23591;DHT22;11973;52.098;7.582;2022-12-29T20:04:44;8.00;99.90
23591;DHT22;11973;52.098;7.582;2022-12-29T20:07:10;7.90;99.90
23591;DHT22;11973;52.098;7.582;2022-12-29T20:09:36;8.00;99.90
23591;DHT22;11973;52.098;7.582;2022-12-29T20:12:01;8.00;99.90
23591;DHT22;11973;52.098;7.582;2022-12-29T20:14:27;8.00;99.90
23591;DHT22;11973;52.098;7.582;2022-12-29T20:16:53;8.20;99.90
23591;DHT22;11973;52.098;7.582;2022-12-29T20:19:18;8.10;99.90
23591;DHT22;11973;52.098;7.582;2022-12-29T20:21:44;8.10;99.90
23591;DHT22;11973;52.098;7.582;2022-12-29T20:24:11;8.10;99.90
23591;DHT22;11973;52.098;7.582;2022-12-29T20:26:37;8.10;99.90
23591;DHT22;11973;52.098;7.582;2022-12-29T20:29:03;8.10;99.90
23591;DHT22;11973;52.098;7.582;2022-12-29T20:31:34;8.10;99.90
23591;DHT22;11973;52.098;7.582;2022-12-29T20:34:01;8.20;99.90
23591;DHT22;11973;52.098;7.582;2022-12-29T20:36:29;8.40;99.90
23591;DHT22;11973;52.098;7.582;2022-12-29T20:38:57;8.20;99.90
23591;DHT22;11973;52.098;7.582;2022-12-29T20:41:23;8.20;99.90
23591;DHT22;11973;52.098;7.582;2022-12-29T20:43:50;8.10;99.90
23591;DHT22;11973;52.098;7.582;2022-12-29T20:46:18;8.10;99.90
23591;DHT22;11973;52.098;7.582;2022-12-29T20:48:44;8.10;99.90
23591;DHT22;11973;52.098;7.582;2022-12-29T20:51:10;8.00;99.90
23591;DHT22;11973;52.098;7.582;2022-12-29T20:53:36;8.00;99.90
23591;DHT22;11973;52.098;7.582;2022-12-29T20:56:05;8.00;99.90
23591;DHT22;11973;52.098;7.582;2022-12-29T20:58:32;8.00;99.90
23591;DHT22;11973;52.098;7.582;2022-12-29T21:01:03;7.90;99.90
23591;DHT22;11973;52.098;7.582;2022-12-29T21:03:29;7.90;99.90
23591;DHT22;11973;52.098;7.582;2022-12-29T21:05:55;8.10;99.90
23591;DHT22;11973;52.098;7.582;2022-12-29T21:08:22;7.90;99.90
23591;DHT22;11973;52.098;7.582;2022-12-29T21:10:49;7.80;99.90
23591;DHT22;11973;52.098;7.582;2022-12-29T21:13:15;7.80;99.90
23591;DHT22;11973;52.098;7.582;2022-12-29T21:15:43;7.90;99.90
23591;DHT22;11973;52.098;7.582;2022-12-29T21:18:09;7.90;99.90
23591;DHT22;11973;52.098;7.582;2022-12-29T21:20:35;7.90;99.90
23591;DHT22;11973;52.098;7.582;2022-12-29T21:23:01;7.90;99.90
23591;DHT22;11973;52.098;7.582;2022-12-29T21:25:28;7.80;99.90
23591;DHT22;11973;52.098;7.582;2022-12-29T21:28:08;7.90;99.90
23591;DHT22;11973;52.098;7.582;2022-12-29T21:30:36;7.90;99.90
23591;DHT22;11973;52.098;7.582;2022-12-29T21:33:03;7.90;99.90
23591;DHT22;11973;52.098;7.582;2022-12-29T21:35:29;7.90;99.90
23591;DHT22;11973;52.098;7.582;2022-12-29T21:37:55;7.90;99.90
23591;DHT22;11973;52.098;7.582;2022-12-29T21:40:21;7.90;99.90
23591;DHT22;11973;52.098;7.582;2022-12-29T21:42:48;8.00;99.90
23591;DHT22;11973;52.098;7.582;2022-12-29T21:45:14;8.10;99.90
23591;DHT22;11973;52.098;7.582;2022-12-29T21:47:58;7.90;99.90
23591;DHT22;11973;52.098;7.582;2022-12-29T21:50:45;8.20;99.90
23591;DHT22;11973;52.098;7.582;2022-12-29T21:53:31;8.00;99.90
23591;DHT22;11973;52.098;7.582;2022-12-29T21:56:12;8.00;99.90
23591;DHT22;11973;52.098;7.582;2022-12-29T21:58:39;8.00;99.90
23591;DHT22;11973;52.098;7.582;2022-12-29T22:01:25;8.00;99.90
23591;DHT22;11973;52.098;7.582;2022-12-29T22:04:12;8.00;99.90
23591;DHT22;11973;52.098;7.582;2022-12-29T22:06:56;8.00;99.90
23591;DHT22;11973;52.098;7.582;2022-12-29T22:09:41;8.10;99.90
23591;DHT22;11973;52.098;7.582;2022-12-29T22:12:26;8.00;99.90
23591;DHT22;11973;52.098;7.582;2022-12-29T22:15:12;8.00;99.90
23591;DHT22;11973;52.098;7.582;2022-12-29T22:17:37;8.00;99.90
23591;DHT22;11973;52.098;7.582;2022-12-29T22:20:04;8.00;99.90
23591;DHT22;11973;52.098;7.582;2022-12-29T22:22:30;8.00;99.90
23591;DHT22;11973;52.098;7.582;2022-12-29T22:24:56;8.00;99.90
23591;DHT22;11973;52.098;7.582;2022-12-29T22:27:22;8.00;99.90
23591;DHT22;11973;52.098;7.582;2022-12-29T22:29:48;8.00;99.90
23591;DHT22;11973;52.098;7.582;2022-12-29T22:32:13;8.00;99.90
23591;DHT22;11973;52.098;7.582;2022-12-29T22:34:40;8.00;99.90
23591;DHT22;11973;52.098;7.582;2022-12-29T22:37:05;8.00;99.90
23591;DHT22;11973;52.098;7.582;2022-12-29T22:39:31;8.00;99.90
23591;DHT22;11973;52.098;7.582;2022-12-29T22:41:57;8.10;99.90
23591;DHT22;11973;52.098;7.582;2022-12-29T22:44:22;8.10;99.90
23591;DHT22;11973;52.098;7.582;2022-12-29T22:46:48;8.10;99.90
23591;DHT22;11973;52.098;7.582;2022-12-29T22:49:14;8.00;99.90
23591;DHT22;11973;52.098;7.582;2022-12-29T22:51:42;8.10;99.90
23591;DHT22;11973;52.098;7.582;2022-12-29T22:54:08;8.00;99.90
23591;DHT22;11973;52.098;7.582;2022-12-29T22:56:34;8.00;99.90
23591;DHT22;11973;52.098;7.582;2022-12-29T22:59:07;8.00;99.90
23591;DHT22;11973;52.098;7.582;2022-12-29T23:01:33;8.00;99.90
23591;DHT22;11973;52.098;7.582;2022-12-29T23:03:59;8.00;99.90
23591;DHT22;11973;52.098;7.582;2022-12-29T23:06:25;8.00;99.90
23591;DHT22;11973;52.098;7.582;2022-12-29T23:08:50;8.10;99.90
23591;DHT22;11973;52.098;7.582;2022-12-29T23:11:18;7.90;99.90
23591;DHT22;11973;52.098;7.582;2022-12-29T23:13:44;7.90;99.90
23591;DHT22;11973;52.098;7.582;2022-12-29T23:16:10;7.80;99.90
23591;DHT22;11973;52.098;7.582;2022-12-29T23:18:36;7.80;99.90
23591;DHT22;11973;52.098;7.582;2022-12-29T23:21:02;7.70;99.90
23591;DHT22;11973;52.098;7.582;2022-12-29T23:23:28;7.70;99.90
23591;DHT22;11973;52.098;7.582;2022-12-29T23:26:12;7.70;99.90
23591;DHT22;11973;52.098;7.582;2022-12-29T23:28:37;7.70;99.90
23591;DHT22;11973;52.098;7.582;2022-12-29T23:31:03;7.60;99.90
23591;DHT22;11973;52.098;7.582;2022-12-29T23:33:29;7.60;99.90
23591;DHT22;11973;52.098;7.582;2022-12-29T23:35:55;7.60;99.90
23591;DHT22;11973;52.098;7.582;2022-12-29T23:38:21;7.60;99.90
23591;DHT22;11973;52.098;7.582;2022-12-29T23:40:46;7.80;99.90
23591;DHT22;11973;52.098;7.582;2022-12-29T23:43:12;7.90;99.90
23591;DHT22;11973;52.098;7.582;2022-12-29T23:45:38;7.70;99.90
23591;DHT22;11973;52.098;7.582;2022-12-29T23:48:04;7.70;99.90
23591;DHT22;11973;52.098;7.582;2022-12-29T23:50:31;7.70;99.90
23591;DHT22;11973;52.098;7.582;2022-12-29T23:52:57;7.90;99.90
23591;DHT22;11973;52.098;7.582;2022-12-29T23:55:23;7.80;99.90
23591;DHT22;11973;52.098;7.582;2022-12-29T23:57:49;7.90;99.90
